Main page
METAR-TAF:

METAR-TAF

Airports :

Samedan Airport

St. Moritz, Switzerland

latitude: 46-32-03N, longitude: 9-53-03E, elevation: 1707 m

Current weather observation

The report was made 21 minutes ago, at 18:20 UTC
Wind 12 kt from the South/Southwest
Temperature 10°C
Humidity 76%
Pressure 1019 hPa
Visibility 10 km or more
Broken clouds at a height of 4400 ft

METAR: LSZS 141820Z AUTO 21012KT 9999 BKN044 10/06 Q1019

Time: 20:41 (18:41 UTC)

Forecast

The report was made 4 hours and 16 minutes ago, at 14:25 UTC
Forecast valid from 14 at 15 UTC to 14 at 24 UTC
Wind 13 kt from the Southwest
Visibility 10 km or more
Few clouds at a height of 3000 ft
Broken clouds at a height of 5000 ft
Becoming
from 14 at 16 UTC to 14 at 19 UTC
Wind 2 kt from variable directions

TAF: LSZS 141425Z 1415/1424 22013KT 9999 FEW030 BKN050 TX13/1415Z BECMG 1416/1419 VRB02KT

Weather observations and forecasts of more than 4000 airports (METAR and TAF reports).

The available stations are represented by yellow and red dots on the map.

Hover mouse over dot to see the name of the station.

Then click to see weather observations and forecasts.

To change the map : click on the green buttons with a black cross to zoom in, on the green button with a dash to zoom out, or on the green arrows for adjacent maps.


METAR-TAF: